Weather

BOSCOMBE DOWN (EGDM)

METAR

EGDM 251450Z AUTO 27009KT 9999 FEW045/// SCT150/// 21/10 Q1018

TAF

TAF EGDM 130455Z 1306/1324 17015KT 9999 -RA BKN015 TEMPO 1306/1312 17018G28KT 6000 -RADZ BKN010 PROB30 TEMPO 1306/1315 3000 RADZ BKN006 BECMG 1312/1315 BKN008

BRISTOL AIRPORT (EGGD)

METAR

EGGD 251550Z AUTO 28016KT 9999 NCD 19/11 Q1019

TAF

TAF EGGD 251101Z 2512/2612 26012KT 9999 SCT030 BECMG 2520/2523 BKN006 TEMPO 2520/2607 6000 BKN002 PROB40 TEMPO 2522/2605 0300 FG BKN000 TEMPO 2607/2612 25015G25KT 3000 RADZ BKN002 PROB40 TEMPO 2609/2612 0300 FG BKN000

BRIZE NORTON (EGVN)

METAR

EGVN 251550Z 30008KT 9999 FEW045 BKN100 21/10 Q1017 BLU NOSIG

TAF

TAF EGVN 251344Z 2515/2615 29007KT 9999 FEW030 PROB30 TEMPO 2521/2602 SCT020 BECMG 2602/2605 BKN010 PROB40 TEMPO 2605/2615 4500 -RADZ PROB30 TEMPO 2605/2608 BKN005 BECMG 2612/2615 BKN018

OXFORD (EGTK)

METAR

EGTK 251550Z 30008KT 9999 FEW044 21/10 Q1017

Pressure charts

Click to see pressure charts
(redidrection to MetOffice website)